Hovedside
METAR-TAF:

METAR-TAF

Lufthavner :

Tartu, Estland

Tartu lufthavn

breddegrad: 58-18N, lengdegrad: 026-44E, høyde over havet: 59 m

Gjeldene værobservasjon

Denne rapporten ble laget for 50 minutter siden, klokken 13:50 UTC
Vind 3 kt fra Nordøst
Temperatur -2°C
Luftfuktighet 100%
Trykk 1015 hPa
Sikt: 3000 m
Brutte skyer i en høyde av 100 ft
Overskyet i en høyde av 1400 ft
dis

METAR: EETU 221350Z 04003KT 3000 BR BKN001 OVC014 M02/M02 Q1015

Tid: 16:40 (14:40 UTC)


TAF: fraværende

Værobservasjoner og værvarsel for over 4000 flyplasser (METAR- og TAF-rapporter).

Tilgjengelige stasjoner er representert av de røde og gule prikkene på kartet.

Hold musepekeren over prikken for å se navnet på stasjonen.

Klikk så for å se værobservasjoner og -varsler.

For å forandre kartet kan du klikke på den grønne knappen med svart kryss for å zoome inn, på den grønne knappen med strek for å zoome ut, eller på de grønne pilene for å se tilstøtende kart.


METAR-TAF: